KSMO/SMO METAR and TAF weather

Enter ICAO airport designator
Station Type Date Time Source
KSMO METAR 2019/12/07 04:51 UTC NOAA

KSMO 070451Z AUTO 05003KT 10SM FEW039 OVC055 15/12 A3016 RMK AO2 RAE23 SLP212 P0000 T01500122


Station Type Date Time Source
KSMO Decoded METAR 2019/12/07 04:51 UTC NOAA

SANTA MONICA MUNICIPAL AIRPORT , CA, United States (KSMO) 34-01N 118-27W 57M
Dec 06, 2019 - 11:51 PM EST / 2019.12.07 0451 UTC
Wind: from the NE (050 degrees) at 3 MPH (3 KT):0
Visibility: 10 mile(s):0
Sky conditions: overcast
Precipitation last hour: A trace
Temperature: 59.0 F (15.0 C)
Dew Point: 54.0 F (12.2 C)
Relative Humidity: 83%
Pressure (altimeter): 30.16 in. Hg (1021 hPa)
ob: KSMO 070451Z AUTO 05003KT 10SM FEW039 OVC055 15/12 A3016 RMK AO2 RAE23 SLP212 P0000 T01500122
cycle: 5

Station Type Date Time Source
KSMO TAF 2019/12/06 18:22 UTC NOAA

TAF KSMO 061722Z 0618/0718 VRB03KT P6SM BKN150
FM062000 21008KT P6SM BKN060 OVC120
FM070200 VRB03KT P6SM VCSH BKN040 OVC080
FM070800 10006KT 6SM -RA BKN025 OVC050
FM071300 09007KT 4SM -RA BR BKN015 OVC025

Example: see airport list